Time;durP1;ratioP1;P1;durP2;ratioP2;P2;SDS_P1;SDS_P2;PMS_P1;PMS_P2;Temp;Humidity;BMP_temperature;BMP_pressure;BME280_temperature;BME280_humidity;BME280_pressure;Samples;Min_cycle;Max_cycle;Signal;HPM_P1;HPM_P2
2023/11/10 00:02:02;;;;;;;2.90;0.80;;;;;;;8.96;88.32;99033.69;5009878;28;20250;-79
2023/11/10 00:04:28;;;;;;;2.23;1.33;;;;;;;8.94;88.25;99035.66;5006573;28;20210;-79
2023/11/10 00:06:55;;;;;;;1.43;0.50;;;;;;;8.94;88.25;99032.16;5005683;28;20864;-78
2023/11/10 00:09:22;;;;;;;1.63;0.70;;;;;;;8.92;88.24;99032.28;5002728;28;20931;-77
2023/11/10 00:11:49;;;;;;;1.93;1.30;;;;;;;8.89;86.81;99040.50;5000785;28;20266;-78
2023/11/10 00:14:15;;;;;;;3.87;0.90;;;;;;;8.87;85.54;99044.25;4999605;28;20270;-78
2023/11/10 00:16:45;;;;;;;1.73;0.90;;;;;;;8.86;83.63;99042.56;5005687;28;20209;-78
2023/11/10 00:19:13;;;;;;;1.10;0.40;;;;;;;8.77;83.18;99059.25;5003409;28;20207;-78
2023/11/10 00:21:40;;;;;;;0.53;0.30;;;;;;;8.74;82.06;99055.03;5002922;28;20244;-79
2023/11/10 00:24:07;;;;;;;1.77;0.60;;;;;;;8.73;81.51;99049.84;5014486;28;20210;-78
2023/11/10 00:26:34;;;;;;;0.90;0.53;;;;;;;8.67;81.47;99059.13;5002672;28;20280;-78
2023/11/10 00:29:01;;;;;;;1.47;0.30;;;;;;;8.61;81.28;99059.63;4999557;28;20266;-78
2023/11/10 00:31:28;;;;;;;0.80;0.30;;;;;;;8.59;81.01;99062.44;5006132;28;20230;-78
2023/11/10 00:33:56;;;;;;;1.17;0.53;;;;;;;8.55;81.31;99066.28;5009663;28;20214;-78
2023/11/10 00:36:23;;;;;;;1.00;0.50;;;;;;;8.50;82.11;99067.59;5003498;28;20207;-79
2023/11/10 00:38:50;;;;;;;0.40;0.20;;;;;;;8.49;80.80;99072.06;5005962;28;20317;-78
2023/11/10 00:41:16;;;;;;;0.43;0.30;;;;;;;8.45;80.91;99073.28;5000788;28;20255;-79
2023/11/10 00:43:43;;;;;;;1.57;0.50;;;;;;;8.47;81.64;99071.34;4997313;28;20637;-78
2023/11/10 00:46:09;;;;;;;0.50;0.50;;;;;;;8.44;81.47;99074.25;5009725;28;20211;-78
2023/11/10 00:48:36;;;;;;;1.37;0.60;;;;;;;8.48;81.01;99072.19;5006313;28;20206;-79
2023/11/10 00:51:04;;;;;;;2.30;1.00;;;;;;;8.46;79.89;99067.00;5003981;28;20227;-78
2023/11/10 00:53:30;;;;;;;2.27;0.93;;;;;;;8.51;79.90;99071.94;5010156;28;20652;-79
2023/11/10 00:55:57;;;;;;;3.30;1.80;;;;;;;8.49;79.60;99076.53;5009621;28;20213;-78
2023/11/10 00:58:23;;;;;;;2.80;0.70;;;;;;;8.46;80.59;99074.13;5012134;28;20222;-79
2023/11/10 01:00:50;;;;;;;4.03;2.50;;;;;;;8.42;80.35;99067.41;5004459;28;20230;-78
2023/11/10 01:03:17;;;;;;;1.63;0.90;;;;;;;8.41;80.88;99063.91;5011350;28;20586;-79
2023/11/10 01:05:45;;;;;;;3.47;2.13;;;;;;;8.35;81.28;99073.19;5009841;28;20582;-78
2023/11/10 01:08:13;;;;;;;3.57;1.37;;;;;;;8.35;81.10;99067.03;5012326;28;20214;-78
2023/11/10 01:10:39;;;;;;;1.63;0.60;;;;;;;8.31;81.29;99079.66;5007834;28;20235;-78
2023/11/10 01:13:06;;;;;;;0.67;0.40;;;;;;;8.31;81.43;99078.81;5005345;28;20310;-79
2023/11/10 01:15:32;;;;;;;2.67;0.60;;;;;;;8.30;81.28;99074.47;5013226;28;20209;-80
2023/11/10 01:17:59;;;;;;;0.60;0.40;;;;;;;8.24;81.04;99081.09;5008587;28;20313;-78
2023/11/10 01:20:26;;;;;;;0.73;0.40;;;;;;;8.22;81.13;99072.44;5005821;28;20258;-78
2023/11/10 01:22:52;;;;;;;3.43;0.50;;;;;;;8.20;81.33;99082.31;5010907;28;20795;-80
2023/11/10 01:25:20;;;;;;;1.43;0.40;;;;;;;8.15;82.09;99073.88;5015781;28;20301;-80
2023/11/10 01:27:47;;;;;;;1.13;0.50;;;;;;;8.09;81.66;99073.50;5005393;28;20202;-80
2023/11/10 01:30:14;;;;;;;1.43;0.60;;;;;;;8.06;82.23;99074.56;5009647;28;20207;-81
2023/11/10 01:32:41;;;;;;;0.67;0.40;;;;;;;8.04;81.80;99065.06;5007566;28;20221;-80
2023/11/10 01:35:08;;;;;;;1.47;0.30;;;;;;;8.01;81.59;99063.50;5015189;28;20763;-80
2023/11/10 01:37:35;;;;;;;0.73;0.40;;;;;;;7.97;82.10;99062.03;5007676;28;20282;-81
2023/11/10 01:40:02;;;;;;;1.43;0.40;;;;;;;7.93;82.19;99060.59;5002087;28;20210;-80
2023/11/10 01:42:30;;;;;;;1.60;0.40;;;;;;;7.88;82.75;99060.13;5011286;28;20223;-80
2023/11/10 01:44:57;;;;;;;0.70;0.40;;;;;;;7.88;82.66;99057.47;5007372;28;20217;-80
2023/11/10 01:47:23;;;;;;;1.07;0.30;;;;;;;7.80;82.81;99057.22;5013337;28;20203;-81
2023/11/10 01:49:51;;;;;;;1.07;0.30;;;;;;;7.77;83.09;99068.03;5012767;28;20655;-80
2023/11/10 01:52:17;;;;;;;1.17;0.80;;;;;;;7.75;83.55;99081.41;5011145;28;20223;-80
2023/11/10 01:54:44;;;;;;;1.33;0.40;;;;;;;7.73;83.82;99082.47;5019439;28;20206;-80
2023/11/10 01:57:11;;;;;;;1.03;0.30;;;;;;;7.68;83.78;99069.59;5008105;28;20214;-80
2023/11/10 01:59:41;;;;;;;2.60;0.53;;;;;;;7.66;83.50;99084.78;5009725;28;20302;-80
2023/11/10 02:02:09;;;;;;;1.70;0.50;;;;;;;7.64;84.50;99061.03;5016422;28;20698;-81
2023/11/10 02:04:36;;;;;;;1.73;0.50;;;;;;;7.62;84.50;99073.56;5003936;28;20643;-81
2023/11/10 02:07:03;;;;;;;1.60;0.50;;;;;;;7.60;84.50;99066.69;5010171;28;20210;-80
2023/11/10 02:09:30;;;;;;;2.30;0.70;;;;;;;7.55;85.29;99064.38;5005622;28;20209;-80
2023/11/10 02:11:57;;;;;;;0.40;0.30;;;;;;;7.51;85.23;99064.75;5011119;28;20257;-80
2023/11/10 02:14:23;;;;;;;1.87;0.60;;;;;;;7.50;85.33;99055.13;5004312;28;20204;-80
2023/11/10 02:16:51;;;;;;;2.27;0.50;;;;;;;7.47;85.45;99053.53;5010545;28;20208;-80
2023/11/10 02:19:17;;;;;;;2.10;0.47;;;;;;;7.42;86.05;99046.88;5013556;28;20561;-81
2023/11/10 02:21:45;;;;;;;2.00;0.37;;;;;;;7.41;86.28;99058.44;5000718;28;20730;-80
2023/11/10 02:24:13;;;;;;;3.30;0.70;;;;;;;7.40;85.52;99046.16;5003279;28;20218;-80
2023/11/10 02:26:41;;;;;;;1.60;0.40;;;;;;;7.42;85.61;99046.88;5014701;28;20211;-81
2023/11/10 02:29:09;;;;;;;2.17;0.60;;;;;;;7.37;85.19;99036.63;5001902;28;20858;-81
2023/11/10 02:31:35;;;;;;;2.20;0.50;;;;;;;7.40;84.74;99028.47;5015032;28;20219;-81
2023/11/10 02:34:02;;;;;;;2.80;0.30;;;;;;;7.37;84.88;99038.44;5005495;28;20214;-81
2023/11/10 02:36:29;;;;;;;1.73;0.40;;;;;;;7.32;84.89;99028.22;5003577;28;20210;-81
2023/11/10 02:38:56;;;;;;;2.00;0.60;;;;;;;7.28;84.92;99040.84;5008995;28;20281;-80
2023/11/10 02:41:22;;;;;;;1.60;0.53;;;;;;;7.30;85.55;99040.72;5005819;28;20230;-80
2023/11/10 02:43:50;;;;;;;2.47;0.97;;;;;;;7.28;85.23;99042.63;5010643;28;20576;-81
2023/11/10 02:46:17;;;;;;;3.90;0.80;;;;;;;7.26;86.28;99044.56;5003582;28;20210;-80
2023/11/10 02:48:43;;;;;;;1.10;0.40;;;;;;;7.24;86.25;99054.41;5006914;28;20199;-80
2023/11/10 02:51:10;;;;;;;0.47;0.40;;;;;;;7.23;86.14;99044.78;5007654;28;20223;-80
2023/11/10 02:53:36;;;;;;;2.80;0.90;;;;;;;7.22;86.30;99054.53;5005255;28;20203;-81
2023/11/10 02:56:03;;;;;;;1.43;0.60;;;;;;;7.28;86.11;99055.88;5008294;28;20203;-81
2023/11/10 02:58:30;;;;;;;0.70;0.43;;;;;;;7.33;85.46;99059.03;4998450;28;20318;-80
2023/11/10 03:00:58;;;;;;;2.63;0.50;;;;;;;7.32;85.84;99060.84;5013380;28;20706;-81
2023/11/10 03:03:25;;;;;;;2.33;1.20;;;;;;;7.32;86.17;99058.19;5010079;28;20206;-80
2023/11/10 03:05:52;;;;;;;1.77;0.43;;;;;;;7.38;85.62;99059.50;5007462;28;20211;-82
2023/11/10 03:08:18;;;;;;;2.27;0.43;;;;;;;7.39;85.77;99047.97;5009097;28;20196;-81
2023/11/10 03:10:45;;;;;;;4.77;0.63;;;;;;;7.44;85.60;99043.16;5009331;28;20230;-81
2023/11/10 03:13:11;;;;;;;3.33;0.50;;;;;;;7.44;85.40;99040.53;5016368;28;20691;-82
2023/11/10 03:15:38;;;;;;;2.00;0.50;;;;;;;7.46;86.07;99043.06;5013748;28;20702;-80
2023/11/10 03:18:06;;;;;;;2.17;0.50;;;;;;;7.50;85.39;99034.75;5007517;28;20226;-81
2023/11/10 03:20:33;;;;;;;2.53;0.60;;;;;;;7.53;84.61;99037.16;5008968;28;20222;-82
2023/11/10 03:22:59;;;;;;;1.93;0.73;;;;;;;7.52;84.54;99032.00;5012642;28;20207;-81
2023/11/10 03:25:26;;;;;;;2.97;1.00;;;;;;;7.55;84.74;99024.63;5013100;28;20210;-80
2023/11/10 03:27:52;;;;;;;0.93;0.60;;;;;;;7.58;84.25;99032.34;5011030;28;20210;-80
2023/11/10 03:30:20;;;;;;;2.00;0.50;;;;;;;7.63;83.86;99024.06;5006790;28;20210;-80
2023/11/10 03:32:46;;;;;;;2.97;0.70;;;;;;;7.61;84.20;99018.03;5011599;28;20238;-81
2023/11/10 03:35:14;;;;;;;2.43;0.40;;;;;;;7.59;85.14;99018.16;5013750;28;20204;-81
2023/11/10 03:37:41;;;;;;;0.93;0.50;;;;;;;7.64;84.58;99020.44;5012973;28;20213;-81
2023/11/10 03:40:09;;;;;;;1.87;1.03;;;;;;;7.60;84.99;99019.84;5008176;28;20211;-81
2023/11/10 03:42:36;;;;;;;4.07;0.87;;;;;;;7.63;84.21;99018.75;5006991;28;20281;-81
2023/11/10 03:45:04;;;;;;;2.37;1.07;;;;;;;7.64;83.99;99018.66;5008244;28;20269;-80
2023/11/10 03:47:31;;;;;;;2.43;0.50;;;;;;;7.64;83.89;99026.59;5012530;28;20205;-81
2023/11/10 03:49:57;;;;;;;1.60;0.60;;;;;;;7.65;83.52;99024.78;5007709;28;20199;-80
2023/11/10 03:52:25;;;;;;;2.00;0.50;;;;;;;7.68;82.88;99027.22;5003538;28;20223;-82
2023/11/10 03:54:52;;;;;;;2.73;0.80;;;;;;;7.66;83.19;99023.84;5001840;28;20228;-81
2023/11/10 03:57:19;;;;;;;3.43;0.50;;;;;;;7.63;83.32;99019.59;5004953;28;20647;-81
2023/11/10 03:59:45;;;;;;;1.50;0.80;;;;;;;7.64;83.28;99023.94;5003928;28;20231;-80
2023/11/10 04:02:11;;;;;;;1.77;0.40;;;;;;;7.66;83.75;99032.63;5004927;28;20235;-80
2023/11/10 04:04:38;;;;;;;2.93;0.50;;;;;;;7.69;82.99;99028.91;5004317;28;20206;-80
2023/11/10 04:07:05;;;;;;;3.60;0.80;;;;;;;7.68;83.49;99019.25;5003837;28;20262;-81
2023/11/10 04:09:34;;;;;;;2.07;0.60;;;;;;;7.65;83.41;99024.78;5007868;28;20210;-80
2023/11/10 04:12:01;;;;;;;1.97;0.70;;;;;;;7.63;83.41;99016.97;5007059;28;20245;-81
2023/11/10 04:14:27;;;;;;;4.77;1.00;;;;;;;7.68;82.22;99013.13;5006709;28;20204;-81
2023/11/10 04:16:54;;;;;;;3.23;1.23;;;;;;;7.70;82.23;99008.53;5010396;28;20210;-82
2023/11/10 04:19:22;;;;;;;8.07;1.43;;;;;;;7.68;82.22;99006.00;5006985;28;20230;-80
2023/11/10 04:21:49;;;;;;;2.97;0.73;;;;;;;7.67;82.23;99006.97;5010100;28;20273;-81
2023/11/10 04:24:15;;;;;;;3.60;1.23;;;;;;;7.70;82.40;98997.94;5005385;28;20203;-80
2023/11/10 04:26:43;;;;;;;3.10;0.87;;;;;;;7.66;82.11;98998.19;5010121;28;20647;-80
2023/11/10 04:29:10;;;;;;;3.80;0.80;;;;;;;7.66;82.79;98992.88;5005537;28;20395;-81
2023/11/10 04:31:38;;;;;;;3.13;0.93;;;;;;;7.60;83.17;98988.03;5006550;28;20247;-80
2023/11/10 04:34:05;;;;;;;3.40;0.93;;;;;;;7.56;82.81;98989.25;5003548;28;20219;-80
2023/11/10 04:36:31;;;;;;;4.83;1.57;;;;;;;7.53;82.99;98984.16;5009309;28;20302;-80
2023/11/10 04:38:58;;;;;;;3.77;0.80;;;;;;;7.50;83.39;98989.72;5004876;28;20254;-82
2023/11/10 04:41:25;;;;;;;2.70;0.90;;;;;;;7.47;83.74;98991.78;5008972;28;20227;-81
2023/11/10 04:43:53;;;;;;;3.00;1.20;;;;;;;7.43;84.03;98983.22;5000420;28;20648;-81
2023/11/10 04:46:19;;;;;;;2.27;0.70;;;;;;;7.40;83.78;98986.09;5001912;28;20660;-80
2023/11/10 04:48:46;;;;;;;1.97;0.83;;;;;;;7.39;84.16;98989.69;4996209;28;20196;-80
2023/11/10 04:51:12;;;;;;;5.20;1.40;;;;;;;7.38;84.56;98988.00;5007682;28;20265;-80
2023/11/10 04:53:40;;;;;;;3.53;1.00;;;;;;;7.32;84.91;98991.97;5011024;28;20199;-81
2023/11/10 04:56:07;;;;;;;3.43;1.57;;;;;;;7.29;85.08;98991.38;4998852;28;20210;-80
2023/11/10 04:58:34;;;;;;;1.90;0.73;;;;;;;7.28;84.92;98994.97;5011239;28;20284;-81
2023/11/10 05:01:03;;;;;;;1.20;0.70;;;;;;;7.25;85.31;99003.16;5001299;28;20218;-80
2023/11/10 05:03:52;;;;;;;2.37;0.70;;;;;;;7.20;85.70;99000.84;5003517;28;20222;-80
2023/11/10 05:06:29;;;;;;;1.67;0.87;;;;;;;7.13;85.55;99009.38;5001638;28;20199;-80
2023/11/10 05:08:55;;;;;;;3.33;0.70;;;;;;;7.13;86.11;99010.22;5012522;28;20210;-81
2023/11/10 05:11:22;;;;;;;4.27;1.63;;;;;;;7.09;85.86;99008.75;5011880;28;20230;-81
2023/11/10 05:13:50;;;;;;;2.93;1.20;;;;;;;7.08;86.29;99006.22;5010690;28;20211;-81
2023/11/10 05:16:19;;;;;;;2.83;1.30;;;;;;;7.07;86.56;98999.25;5010122;28;20672;-81
2023/11/10 05:18:45;;;;;;;1.57;0.70;;;;;;;7.06;86.52;98992.25;5008687;28;20235;-80
2023/11/10 05:21:12;;;;;;;1.33;0.90;;;;;;;7.06;87.39;98993.09;5010087;28;20733;-81
2023/11/10 05:23:40;;;;;;;2.97;0.73;;;;;;;7.10;86.94;98988.44;5008006;28;20209;-80
2023/11/10 05:26:07;;;;;;;2.03;0.80;;;;;;;7.06;87.06;99001.03;5011485;28;20235;-80
2023/11/10 05:28:33;;;;;;;1.00;0.63;;;;;;;7.05;87.02;98996.72;5011573;28;20230;-80
2023/11/10 05:31:00;;;;;;;1.97;1.20;;;;;;;7.02;87.48;98996.09;5009070;28;20236;-80
2023/11/10 05:33:29;;;;;;;3.33;0.70;;;;;;;7.00;87.93;99003.28;5012591;28;20214;-81
2023/11/10 05:35:56;;;;;;;1.60;0.90;;;;;;;6.97;87.93;99001.75;5000254;28;20231;-80
2023/11/10 05:38:22;;;;;;;1.37;0.50;;;;;;;6.95;88.08;99001.84;5004814;28;20211;-80
2023/11/10 05:40:49;;;;;;;1.07;0.70;;;;;;;6.94;88.64;99005.47;5006547;28;20231;-80
2023/11/10 05:43:16;;;;;;;2.53;0.50;;;;;;;6.91;88.72;98999.53;5008110;28;20840;-80
2023/11/10 05:45:43;;;;;;;1.57;0.60;;;;;;;6.91;89.40;99003.03;5012520;28;20207;-80
2023/11/10 05:48:10;;;;;;;1.97;0.80;;;;;;;6.99;88.60;99009.56;5019677;28;20230;-81
2023/11/10 05:50:38;;;;;;;2.97;0.67;;;;;;;6.98;88.94;99008.72;5011785;28;20222;-80
2023/11/10 05:53:05;;;;;;;2.20;0.50;;;;;;;6.96;89.54;99006.19;5011401;28;20250;-80
2023/11/10 05:55:32;;;;;;;1.93;0.60;;;;;;;6.97;90.46;99013.19;5012782;28;20286;-80
2023/11/10 05:57:59;;;;;;;1.60;0.40;;;;;;;6.99;90.61;99009.56;5011582;28;20250;-80
2023/11/10 06:00:26;;;;;;;2.47;0.60;;;;;;;7.01;89.79;99007.63;5013036;28;20266;-80
2023/11/10 06:02:52;;;;;;;2.30;0.90;;;;;;;7.04;90.24;99004.75;5004705;28;20298;-80
2023/11/10 06:05:19;;;;;;;1.47;0.40;;;;;;;7.03;90.71;99000.41;5013245;28;20234;-81
2023/11/10 06:07:47;;;;;;;2.07;0.47;;;;;;;7.02;90.81;99011.97;5014369;28;20302;-80
2023/11/10 06:10:16;;;;;;;2.80;0.90;;;;;;;7.03;90.70;99005.72;5013675;28;20679;-80
2023/11/10 06:12:42;;;;;;;1.53;0.93;;;;;;;6.97;90.81;99005.25;5008395;28;20257;-81
2023/11/10 06:15:12;;;;;;;3.43;0.53;;;;;;;7.00;90.21;99009.44;5007933;28;20210;-80
2023/11/10 06:17:39;;;;;;;2.30;0.40;;;;;;;6.95;89.84;99004.50;5015049;28;20319;-80
2023/11/10 06:20:07;;;;;;;1.47;0.40;;;;;;;6.93;90.82;99001.13;5006019;28;20230;-80
2023/11/10 06:22:34;;;;;;;1.27;0.50;;;;;;;6.99;90.15;99005.09;5008872;28;20211;-80
2023/11/10 06:25:01;;;;;;;0.70;0.33;;;;;;;6.97;90.30;99009.69;5012859;28;20249;-79
2023/11/10 06:27:28;;;;;;;1.27;0.83;;;;;;;6.91;89.97;99013.63;5009029;28;20211;-80
2023/11/10 06:29:55;;;;;;;1.50;0.50;;;;;;;6.90;90.04;99009.28;5011861;28;20202;-80
2023/11/10 06:32:21;;;;;;;3.43;0.50;;;;;;;6.90;89.75;99011.94;5008260;28;20219;-81
2023/11/10 06:34:48;;;;;;;2.83;0.67;;;;;;;6.86;89.53;99015.75;5012313;28;20215;-81
2023/11/10 06:37:15;;;;;;;1.50;0.60;;;;;;;6.82;89.80;99010.78;5016202;28;20219;-80
2023/11/10 06:39:42;;;;;;;3.60;0.57;;;;;;;6.82;90.26;99024.03;5010326;28;20227;-81
2023/11/10 06:42:10;;;;;;;2.20;0.60;;;;;;;6.85;89.43;99022.00;5013095;28;20687;-80
2023/11/10 06:44:37;;;;;;;3.40;0.70;;;;;;;6.96;89.16;99030.00;5010954;28;20213;-80
2023/11/10 06:47:04;;;;;;;2.83;0.63;;;;;;;6.96;89.09;99034.47;5008018;28;20238;-80
2023/11/10 06:49:32;;;;;;;1.80;0.50;;;;;;;7.00;88.27;99027.13;5006751;28;20203;-80
2023/11/10 06:51:59;;;;;;;2.60;0.70;;;;;;;7.00;88.31;99035.06;5016415;28;20233;-80
2023/11/10 06:54:25;;;;;;;2.37;0.50;;;;;;;6.99;88.27;99039.50;5007196;28;20570;-80
2023/11/10 06:56:53;;;;;;;2.17;0.60;;;;;;;6.99;88.59;99043.97;5015293;28;20206;-80
2023/11/10 06:59:21;;;;;;;0.60;0.50;;;;;;;7.02;88.93;99039.28;5016242;28;20265;-80
2023/11/10 07:01:48;;;;;;;2.67;1.07;;;;;;;7.02;88.63;99043.72;5017424;28;20889;-80
2023/11/10 07:04:14;;;;;;;2.03;1.10;;;;;;;7.02;88.53;99036.63;5008890;28;20229;-79
2023/11/10 07:06:41;;;;;;;2.57;1.40;;;;;;;7.02;89.15;99035.78;5011052;28;20264;-80
2023/11/10 07:09:07;;;;;;;3.37;1.30;;;;;;;7.01;89.12;99032.28;5014917;28;20211;-81
2023/11/10 07:11:34;;;;;;;2.93;1.13;;;;;;;6.99;90.19;99028.91;5015434;28;20233;-80
2023/11/10 07:14:02;;;;;;;1.20;0.50;;;;;;;7.03;89.84;99024.25;5017103;28;20210;-80
2023/11/10 07:16:31;;;;;;;1.97;0.50;;;;;;;7.08;89.80;99033.53;5012780;28;20230;-80
2023/11/10 07:18:58;;;;;;;2.67;0.90;;;;;;;7.05;90.56;99028.47;5019090;28;20220;-80
2023/11/10 07:21:29;;;;;;;1.63;0.90;;;;;;;7.04;90.23;99033.88;5011967;28;20712;-80
2023/11/10 07:23:55;;;;;;;1.53;0.73;;;;;;;7.04;91.04;99029.44;5009738;28;20264;-80
2023/11/10 07:26:22;;;;;;;3.27;1.10;;;;;;;7.05;91.29;99038.22;5011214;28;20219;-80
2023/11/10 07:28:48;;;;;;;2.27;1.40;;;;;;;7.07;90.46;99041.59;5015781;28;20213;-81
2023/11/10 07:31:15;;;;;;;1.20;0.70;;;;;;;7.09;90.63;99039.69;5016843;28;20226;-80
2023/11/10 07:33:42;;;;;;;4.57;1.73;;;;;;;7.15;90.01;99039.22;5010659;28;20215;-81
2023/11/10 07:36:11;;;;;;;3.07;1.80;;;;;;;7.15;90.51;99039.22;5014026;28;20610;-80
2023/11/10 07:38:39;;;;;;;4.17;1.30;;;;;;;7.18;90.15;99038.97;5013483;28;20568;-81
2023/11/10 07:41:05;;;;;;;5.67;2.07;;;;;;;7.19;90.38;99040.66;5012513;28;20690;-81
2023/11/10 07:43:32;;;;;;;2.97;1.17;;;;;;;7.21;90.45;99042.25;5009203;28;20210;-81
2023/11/10 07:46:03;;;;;;;2.23;0.73;;;;;;;7.26;89.29;99047.19;5013949;28;20211;-81
2023/11/10 07:48:30;;;;;;;1.97;1.00;;;;;;;7.28;89.38;99050.59;5011011;28;20195;-80
2023/11/10 07:50:58;;;;;;;3.60;1.20;;;;;;;7.28;89.06;99056.72;5015277;28;20797;-80
2023/11/10 07:53:26;;;;;;;2.07;1.27;;;;;;;7.34;88.98;99060.72;5014103;28;20203;-80
2023/11/10 07:55:52;;;;;;;6.43;1.30;;;;;;;7.37;88.53;99055.16;5007363;28;20214;-80
2023/11/10 07:58:19;;;;;;;2.27;0.87;;;;;;;7.41;88.43;99051.34;5011915;28;20222;-80
2023/11/10 08:00:47;;;;;;;1.27;0.90;;;;;;;7.42;89.98;99050.38;5015628;28;20233;-81
2023/11/10 08:03:14;;;;;;;2.30;0.60;;;;;;;7.47;90.01;99066.78;5016273;28;20237;-81
2023/11/10 08:05:41;;;;;;;3.73;0.80;;;;;;;7.49;90.64;99058.72;5014085;28;20225;-81
2023/11/10 08:08:10;;;;;;;2.73;0.57;;;;;;;7.48;90.36;99063.16;5012574;28;20209;-80
2023/11/10 08:10:37;;;;;;;1.37;0.53;;;;;;;7.50;90.83;99050.66;5014960;28;20250;-81
2023/11/10 08:13:03;;;;;;;1.33;0.53;;;;;;;7.57;90.18;99048.38;5018418;28;20703;-81
2023/11/10 08:15:30;;;;;;;1.33;0.63;;;;;;;7.58;90.41;99053.53;5007815;28;20563;-81
2023/11/10 08:17:56;;;;;;;1.17;0.60;;;;;;;7.60;91.08;99048.97;5018154;28;20316;-81
2023/11/10 08:20:24;;;;;;;0.90;0.50;;;;;;;7.58;91.11;99066.78;5006289;28;20242;-82
2023/11/10 08:22:51;;;;;;;1.43;0.60;;;;;;;7.65;91.14;99075.13;5009927;28;20784;-81
2023/11/10 08:25:18;;;;;;;1.27;0.50;;;;;;;7.65;91.24;99083.94;5017663;28;20598;-82
2023/11/10 08:27:45;;;;;;;1.17;0.40;;;;;;;7.70;90.48;99080.09;5013392;28;20779;-81
2023/11/10 08:30:12;;;;;;;2.17;0.53;;;;;;;7.80;89.65;99073.94;5015062;28;20583;-80
2023/11/10 08:32:40;;;;;;;1.50;0.40;;;;;;;7.86;89.48;99070.84;5007387;28;20221;-80
2023/11/10 08:35:08;;;;;;;0.80;0.77;;;;;;;7.96;89.12;99068.31;5010774;28;20207;-80
2023/11/10 08:37:35;;;;;;;2.20;0.40;;;;;;;8.08;88.39;99079.75;5018598;28;20198;-81
2023/11/10 08:40:02;;;;;;;0.40;0.27;;;;;;;8.21;88.32;99076.03;5010344;28;20645;-81
2023/11/10 08:42:31;;;;;;;2.37;0.50;;;;;;;8.32;86.75;99081.38;5017161;28;20228;-81
2023/11/10 08:44:57;;;;;;;1.03;0.30;;;;;;;8.44;86.41;99078.69;5016161;28;20217;-80
2023/11/10 08:47:23;;;;;;;0.83;0.37;;;;;;;8.62;84.82;99077.22;5017000;28;20228;-80
2023/11/10 08:49:52;;;;;;;0.80;0.47;;;;;;;8.71;85.56;99073.84;5013077;28;20653;-81
2023/11/10 08:52:19;;;;;;;2.33;0.60;;;;;;;8.86;83.87;99079.72;5019821;28;20280;-80
2023/11/10 08:54:46;;;;;;;1.40;0.57;;;;;;;8.95;84.06;99085.16;5014591;28;20282;-81
2023/11/10 08:57:13;;;;;;;1.07;0.30;;;;;;;9.10;81.96;99076.88;5013882;28;20214;-80
2023/11/10 08:59:41;;;;;;;2.67;0.60;;;;;;;9.19;82.40;99081.44;5009719;28;20254;-80
2023/11/10 09:02:10;;;;;;;3.40;0.83;;;;;;;9.27;80.82;99079.84;5005905;28;20566;-81
2023/11/10 09:04:36;;;;;;;1.00;0.40;;;;;;;9.30;80.21;99079.59;5012309;28;20206;-80
2023/11/10 09:07:03;;;;;;;2.20;0.50;;;;;;;9.27;79.84;99074.53;5013665;28;20214;-80
2023/11/10 09:09:29;;;;;;;0.80;0.60;;;;;;;9.32;80.68;99076.78;5014068;28;20216;-80
2023/11/10 09:11:57;;;;;;;2.47;0.50;;;;;;;9.34;81.26;99074.84;5013264;28;20230;-80
2023/11/10 09:14:24;;;;;;;1.60;0.57;;;;;;;9.32;81.92;99085.59;5006024;28;20211;-80
2023/11/10 09:16:52;;;;;;;1.53;0.50;;;;;;;9.33;81.27;99084.63;5016521;28;20225;-80
2023/11/10 09:19:20;;;;;;;2.13;0.50;;;;;;;9.34;79.59;99085.47;5006914;28;20207;-81
2023/11/10 09:21:47;;;;;;;2.10;0.73;;;;;;;9.29;80.60;99085.03;5015326;28;20794;-81
2023/11/10 09:24:13;;;;;;;2.90;0.63;;;;;;;9.30;81.45;99086.72;5020043;28;20206;-80
2023/11/10 09:26:41;;;;;;;1.37;0.40;;;;;;;9.33;80.70;99089.09;5012710;28;20207;-81
2023/11/10 09:29:07;;;;;;;3.20;0.90;;;;;;;9.28;80.53;99094.81;5015061;28;20235;-81
2023/11/10 09:31:34;;;;;;;3.83;2.80;;;;;;;9.32;81.01;99085.59;5016202;28;20227;-81
2023/11/10 09:34:02;;;;;;;2.70;1.03;;;;;;;9.34;81.27;99093.44;5017857;28;20206;-80
2023/11/10 09:36:29;;;;;;;1.80;1.03;;;;;;;9.31;80.68;99094.56;5017822;28;20274;-82
2023/11/10 09:38:56;;;;;;;0.97;0.50;;;;;;;9.29;81.19;99093.84;5019860;28;20229;-80
2023/11/10 09:41:24;;;;;;;4.23;1.70;;;;;;;9.29;82.11;99093.84;5018814;28;20248;-81
2023/11/10 09:43:52;;;;;;;1.97;0.60;;;;;;;9.30;82.75;99094.69;5011467;28;20200;-81
2023/11/10 09:46:21;;;;;;;1.73;0.83;;;;;;;9.30;83.45;99084.06;5015769;28;20677;-80
2023/11/10 09:48:49;;;;;;;3.20;0.60;;;;;;;9.30;83.84;99089.38;5011190;28;20211;-80
2023/11/10 09:51:20;;;;;;;2.63;0.80;;;;;;;9.26;84.30;99093.25;5014512;28;20227;-81
2023/11/10 09:53:48;;;;;;;0.93;0.50;;;;;;;9.28;85.50;99097.47;5013229;28;20226;-80
2023/11/10 09:56:15;;;;;;;1.50;0.60;;;;;;;9.30;85.36;99100.00;5009809;28;20227;-81
2023/11/10 09:58:42;;;;;;;1.27;0.60;;;;;;;9.30;84.15;99095.53;5017628;28;20211;-81
2023/11/10 10:01:09;;;;;;;2.53;0.80;;;;;;;9.30;82.21;99094.69;5017730;28;20265;-80
2023/11/10 10:03:35;;;;;;;1.53;0.50;;;;;;;9.30;82.40;99100.00;5010359;28;20245;-81
2023/11/10 10:06:02;;;;;;;1.63;0.63;;;;;;;9.30;81.61;99100.00;5010514;28;20210;-80
2023/11/10 10:08:30;;;;;;;1.00;0.60;;;;;;;9.31;82.42;99083.94;5011536;28;20582;-81
2023/11/10 10:10:56;;;;;;;2.80;0.70;;;;;;;9.27;82.67;99090.47;5009634;28;20238;-80
2023/11/10 10:13:23;;;;;;;1.90;0.70;;;;;;;9.33;83.75;99094.41;5019840;28;20208;-80
2023/11/10 10:15:50;;;;;;;1.77;0.70;;;;;;;9.32;82.93;99100.69;5011512;28;20219;-80
2023/11/10 10:18:16;;;;;;;4.07;0.70;;;;;;;9.35;82.00;99097.78;5012974;28;20675;-80
2023/11/10 10:20:43;;;;;;;1.30;0.43;;;;;;;9.38;82.70;99093.06;5012959;28;20239;-80
2023/11/10 10:23:10;;;;;;;2.00;0.60;;;;;;;9.39;83.78;99101.88;5008659;28;20700;-81
2023/11/10 10:25:39;;;;;;;2.37;0.60;;;;;;;9.41;83.51;99102.59;5012201;28;20253;-81
2023/11/10 10:28:07;;;;;;;1.37;0.80;;;;;;;9.38;82.17;99089.56;5017544;28;20813;-80
2023/11/10 10:30:33;;;;;;;1.70;0.97;;;;;;;9.35;81.86;99082.69;5013287;28;20230;-81
2023/11/10 10:33:00;;;;;;;2.30;0.70;;;;;;;9.41;82.21;99084.00;5012347;28;20207;-81
2023/11/10 10:35:27;;;;;;;1.93;0.70;;;;;;;9.43;81.01;99083.88;5008731;28;20223;-80
2023/11/10 10:38:04;;;;;;;1.67;0.70;;;;;;;9.35;79.99;99082.69;5012800;28;20200;-80
2023/11/10 10:40:32;;;;;;;2.83;0.70;;;;;;;9.34;80.40;99080.16;5013960;28;20246;-80
2023/11/10 10:43:00;;;;;;;2.33;0.77;;;;;;;9.33;79.98;99068.69;5016004;28;20253;-81
2023/11/10 10:45:27;;;;;;;1.67;0.90;;;;;;;9.34;79.18;99070.38;5012251;28;20212;-80
2023/11/10 10:47:58;;;;;;;1.70;0.70;;;;;;;9.37;78.99;99063.97;5014718;28;20207;-80
2023/11/10 10:50:26;;;;;;;2.43;0.90;;;;;;;9.37;79.05;99056.84;5015506;28;20245;-80
2023/11/10 10:52:55;;;;;;;2.83;0.50;;;;;;;9.41;76.08;99054.78;5007840;28;20200;-81
2023/11/10 10:55:23;;;;;;;0.97;0.60;;;;;;;9.42;76.84;99050.31;5011859;28;20581;-80
2023/11/10 10:57:51;;;;;;;0.77;0.60;;;;;;;9.47;76.79;99048.97;5018533;28;20212;-80
2023/11/10 11:00:20;;;;;;;0.87;0.67;;;;;;;9.51;76.49;99050.34;5018284;28;20227;-80
2023/11/10 11:02:53;;;;;;;2.00;0.70;;;;;;;9.53;76.78;99044.91;5012176;28;20298;-80
2023/11/10 11:05:42;;;;;;;2.87;0.80;;;;;;;9.54;76.40;99054.56;5012723;28;20199;-80
2023/11/10 11:08:25;;;;;;;1.93;1.30;;;;;;;9.57;76.11;99051.66;5007523;28;20207;-82
2023/11/10 11:11:15;;;;;;;0.80;0.57;;;;;;;9.66;75.11;99053.56;5015830;28;20222;-80
2023/11/10 11:14:19;;;;;;;2.07;0.67;;;;;;;9.72;73.89;99056.53;5010322;28;20206;-80
2023/11/10 11:17:06;;;;;;;1.83;0.70;;;;;;;9.74;73.89;99046.59;5009184;28;20264;-80
2023/11/10 11:19:35;;;;;;;3.57;0.70;;;;;;;9.81;72.77;99046.09;5018898;28;20207;-81
2023/11/10 11:22:02;;;;;;;2.70;0.80;;;;;;;9.84;73.28;99048.50;5004913;28;20235;-81
2023/11/10 11:24:31;;;;;;;0.70;0.50;;;;;;;9.84;74.24;99043.19;5008221;28;20216;-82
2023/11/10 11:27:02;;;;;;;1.03;0.67;;;;;;;9.89;74.59;99048.91;5011290;28;20252;-81
2023/11/10 11:29:35;;;;;;;1.73;1.00;;;;;;;9.99;73.41;99041.84;5000052;28;20658;-80
2023/11/10 11:32:05;;;;;;;1.23;0.50;;;;;;;10.09;71.04;99035.59;5005493;28;20228;-80
2023/11/10 11:34:33;;;;;;;1.43;0.83;;;;;;;10.12;70.81;99020.34;5007688;28;20213;-80
2023/11/10 11:37:04;;;;;;;1.43;0.53;;;;;;;10.14;69.57;99037.84;5013233;28;20213;-80
2023/11/10 11:39:33;;;;;;;1.43;0.70;;;;;;;10.13;70.76;99056.59;5010431;28;20631;-81
2023/11/10 11:42:04;;;;;;;1.40;1.00;;;;;;;10.14;68.89;99040.50;5006180;28;20270;-80
2023/11/10 11:44:32;;;;;;;0.93;0.60;;;;;;;10.09;69.09;99038.25;5008747;28;20207;-81